PRIVATE WETTERSTATION BILLIGHEIM-ALLFELD                       ZURCK
Wetterdaten: Sonntag, 28.08.2016
Datum Zeit Temp. A. Temp. A. min Temp. A. max Feuchte A. Luftdruck Regen Wind Richtung Richtung Sonnenschein ET Solar Taupunkt Windchill Windben Empfang
28.08.2016 00:00 20,8 C 20,8 C 21,2 C 74 % 1014,2 hPa 0,0 l/m 0,0 km/h (0 Bft) N 0 0 min 0,025 mm 0 W/m 16,0 C 20,8 C 0,0 km/h (0 Bft) 89 %
28.08.2016 00:10 20,4 C 20,4 C 20,8 C 74 % 1014,2 hPa 0,0 l/m 0,0 km/h (0 Bft) N 0 0 min 0,000 mm 0 W/m 15,6 C 20,4 C 0,0 km/h (0 Bft) 97 %
28.08.2016 00:20 20,2 C 20,2 C 20,5 C 76 % 1014,0 hPa 0,0 l/m 0,0 km/h (0 Bft) N 0 0 min 0,000 mm 0 W/m 15,8 C 20,2 C 0,0 km/h (0 Bft) 98 %
28.08.2016 00:30 19,9 C 19,9 C 20,2 C 77 % 1014,1 hPa 0,0 l/m 0,0 km/h (0 Bft) NO 45 0 min 0,000 mm 0 W/m 15,7 C 19,9 C 4,8 km/h (1 Bft) 98 %
28.08.2016 00:40 19,6 C 19,6 C 19,9 C 78 % 1014,0 hPa 0,0 l/m 0,0 km/h (0 Bft) NO 45 0 min 0,000 mm 0 W/m 15,7 C 19,6 C 3,2 km/h (1 Bft) 98 %
28.08.2016 00:50 19,3 C 19,3 C 19,6 C 80 % 1014,1 hPa 0,0 l/m 0,0 km/h (0 Bft) NO 45 0 min 0,000 mm 0 W/m 15,8 C 19,3 C 1,6 km/h (1 Bft) 97 %
28.08.2016 01:00 19,1 C 19,1 C 19,3 C 80 % 1014,0 hPa 0,0 l/m 0,0 km/h (0 Bft) N 0 0 min 0,025 mm 0 W/m 15,6 C 19,1 C 0,0 km/h (0 Bft) 97 %
28.08.2016 01:10 18,9 C 18,9 C 19,1 C 80 % 1014,0 hPa 0,0 l/m 0,0 km/h (0 Bft) NO 45 0 min 0,000 mm 0 W/m 15,4 C 18,9 C 1,6 km/h (1 Bft) 97 %
28.08.2016 01:20 18,8 C 18,8 C 18,9 C 80 % 1014,1 hPa 0,0 l/m 0,0 km/h (0 Bft) NO 45 0 min 0,000 mm 0 W/m 15,3 C 18,8 C 1,6 km/h (1 Bft) 97 %
28.08.2016 01:30 18,6 C 18,6 C 18,8 C 81 % 1014,0 hPa 0,0 l/m 0,0 km/h (0 Bft) N 0 0 min 0,000 mm 0 W/m 15,3 C 18,6 C 0,0 km/h (0 Bft) 97 %
28.08.2016 01:40 18,5 C 18,5 C 18,6 C 81 % 1014,0 hPa 0,0 l/m 0,0 km/h (0 Bft) N 0 0 min 0,000 mm 0 W/m 15,2 C 18,5 C 0,0 km/h (0 Bft) 97 %
28.08.2016 01:50 18,4 C 18,4 C 18,5 C 82 % 1014,0 hPa 0,0 l/m 0,0 km/h (0 Bft) N 0 0 min 0,000 mm 0 W/m 15,3 C 18,4 C 0,0 km/h (0 Bft) 97 %
28.08.2016 02:00 18,3 C 18,3 C 18,4 C 83 % 1013,9 hPa 0,0 l/m 0,0 km/h (0 Bft) N 0 0 min 0,025 mm 0 W/m 15,4 C 18,3 C 0,0 km/h (0 Bft) 97 %
28.08.2016 02:10 18,2 C 18,2 C 18,3 C 83 % 1013,8 hPa 0,0 l/m 0,0 km/h (0 Bft) N 0 0 min 0,000 mm 0 W/m 15,3 C 18,2 C 0,0 km/h (0 Bft) 97 %
28.08.2016 02:20 18,2 C 18,2 C 18,3 C 83 % 1013,8 hPa 0,0 l/m 0,0 km/h (0 Bft) N 0 0 min 0,000 mm 0 W/m 15,3 C 18,2 C 0,0 km/h (0 Bft) 98 %
28.08.2016 02:30 18,1 C 18,1 C 18,2 C 83 % 1013,7 hPa 0,0 l/m 0,0 km/h (0 Bft) NO 45 0 min 0,000 mm 0 W/m 15,2 C 18,1 C 1,6 km/h (1 Bft) 97 %
28.08.2016 02:40 17,9 C 17,9 C 18,1 C 83 % 1013,7 hPa 0,0 l/m 0,0 km/h (0 Bft) NO 45 0 min 0,000 mm 0 W/m 15,0 C 17,9 C 1,6 km/h (1 Bft) 98 %
28.08.2016 02:50 17,8 C 17,8 C 17,9 C 83 % 1013,7 hPa 0,0 l/m 0,0 km/h (0 Bft) NO 45 0 min 0,000 mm 0 W/m 14,9 C 17,8 C 1,6 km/h (1 Bft) 97 %
28.08.2016 03:00 17,8 C 17,7 C 17,8 C 84 % 1013,6 hPa 0,0 l/m 0,0 km/h (0 Bft) N 0 0 min 0,025 mm 0 W/m 15,1 C 17,8 C 0,0 km/h (0 Bft) 98 %
28.08.2016 03:10 17,7 C 17,7 C 17,8 C 84 % 1013,6 hPa 0,0 l/m 0,0 km/h (0 Bft) NO 45 0 min 0,000 mm 0 W/m 15,0 C 17,7 C 3,2 km/h (1 Bft) 97 %
28.08.2016 03:20 17,7 C 17,7 C 17,7 C 84 % 1013,7 hPa 0,0 l/m 0,0 km/h (0 Bft) NO 45 0 min 0,000 mm 0 W/m 15,0 C 17,7 C 4,8 km/h (1 Bft) 98 %
28.08.2016 03:30 17,6 C 17,6 C 17,7 C 84 % 1013,6 hPa 0,0 l/m 0,0 km/h (0 Bft) NO 45 0 min 0,000 mm 0 W/m 14,9 C 17,6 C 4,8 km/h (1 Bft) 97 %
28.08.2016 03:40 17,5 C 17,5 C 17,6 C 84 % 1013,6 hPa 0,0 l/m 0,0 km/h (0 Bft) N 0 0 min 0,000 mm 0 W/m 14,8 C 17,5 C 0,0 km/h (0 Bft) 98 %
28.08.2016 03:50 17,4 C 17,4 C 17,5 C 84 % 1013,5 hPa 0,0 l/m 0,0 km/h (0 Bft) N 0 0 min 0,000 mm 0 W/m 14,7 C 17,4 C 0,0 km/h (0 Bft) 98 %
28.08.2016 04:00 17,4 C 17,4 C 17,4 C 85 % 1013,5 hPa 0,0 l/m 0,0 km/h (0 Bft) N 0 0 min 0,025 mm 0 W/m 14,8 C 17,4 C 0,0 km/h (0 Bft) 98 %
28.08.2016 04:10 17,4 C 17,4 C 17,4 C 85 % 1013,4 hPa 0,0 l/m 0,0 km/h (0 Bft) N 0 0 min 0,000 mm 0 W/m 14,8 C 17,4 C 0,0 km/h (0 Bft) 98 %
28.08.2016 04:20 17,5 C 17,4 C 17,5 C 85 % 1013,5 hPa 0,0 l/m 0,0 km/h (0 Bft) N 0 0 min 0,000 mm 0 W/m 14,9 C 17,5 C 0,0 km/h (0 Bft) 97 %
28.08.2016 04:30 17,5 C 17,5 C 17,5 C 85 % 1013,5 hPa 0,0 l/m 0,0 km/h (0 Bft) N 0 0 min 0,000 mm 0 W/m 14,9 C 17,5 C 0,0 km/h (0 Bft) 97 %
28.08.2016 04:40 17,5 C 17,5 C 17,6 C 84 % 1013,4 hPa 0,0 l/m 0,0 km/h (0 Bft) N 0 0 min 0,000 mm 0 W/m 14,8 C 17,5 C 0,0 km/h (0 Bft) 98 %
28.08.2016 04:50 17,6 C 17,5 C 17,6 C 84 % 1013,5 hPa 0,0 l/m 0,0 km/h (0 Bft) N 0 0 min 0,000 mm 0 W/m 14,9 C 17,6 C 0,0 km/h (0 Bft) 97 %
28.08.2016 05:00 17,5 C 17,5 C 17,6 C 84 % 1013,5 hPa 0,0 l/m 0,0 km/h (0 Bft) N 0 0 min 0,025 mm 0 W/m 14,8 C 17,5 C 0,0 km/h (0 Bft) 98 %
28.08.2016 05:10 17,4 C 17,4 C 17,5 C 84 % 1013,6 hPa 0,0 l/m 0,0 km/h (0 Bft) NO 45 0 min 0,000 mm 0 W/m 14,7 C 17,4 C 1,6 km/h (1 Bft) 97 %
28.08.2016 05:20 17,4 C 17,3 C 17,4 C 83 % 1013,6 hPa 0,0 l/m 0,0 km/h (0 Bft) N 0 0 min 0,000 mm 0 W/m 14,5 C 17,4 C 0,0 km/h (0 Bft) 98 %
28.08.2016 05:30 17,6 C 17,4 C 17,6 C 84 % 1013,5 hPa 0,0 l/m 0,0 km/h (0 Bft) N 0 0 min 0,000 mm 0 W/m 14,9 C 17,6 C 0,0 km/h (0 Bft) 98 %
28.08.2016 05:40 17,6 C 17,6 C 17,6 C 84 % 1013,4 hPa 0,0 l/m 0,0 km/h (0 Bft) N 0 0 min 0,000 mm 0 W/m 14,9 C 17,6 C 0,0 km/h (0 Bft) 97 %
28.08.2016 05:50 17,6 C 17,6 C 17,6 C 83 % 1013,4 hPa 0,0 l/m 0,0 km/h (0 Bft) N 0 0 min 0,000 mm 0 W/m 14,7 C 17,6 C 0,0 km/h (0 Bft) 97 %
28.08.2016 06:00 17,5 C 17,5 C 17,6 C 84 % 1013,5 hPa 0,0 l/m 0,0 km/h (0 Bft) N 0 0 min 0,025 mm 0 W/m 14,8 C 17,5 C 0,0 km/h (0 Bft) 98 %
28.08.2016 06:10 17,3 C 17,3 C 17,5 C 83 % 1013,5 hPa 0,0 l/m 0,0 km/h (0 Bft) N 0 0 min 0,000 mm 0 W/m 14,4 C 17,3 C 0,0 km/h (0 Bft) 98 %
28.08.2016 06:20 17,2 C 17,2 C 17,3 C 84 % 1013,6 hPa 0,0 l/m 0,0 km/h (0 Bft) N 0 0 min 0,000 mm 0 W/m 14,5 C 17,2 C 0,0 km/h (0 Bft) 99 %
28.08.2016 06:30 17,1 C 17,1 C 17,2 C 85 % 1013,6 hPa 0,0 l/m 0,0 km/h (0 Bft) N 0 0 min 0,000 mm 0 W/m 14,6 C 17,1 C 0,0 km/h (0 Bft) 100 %
28.08.2016 06:40 16,9 C 16,9 C 17,1 C 85 % 1013,7 hPa 0,0 l/m 0,0 km/h (0 Bft) NO 45 0 min 0,000 mm 5 W/m 14,4 C 16,9 C 1,6 km/h (1 Bft) 100 %
28.08.2016 06:50 16,9 C 16,9 C 16,9 C 85 % 1013,8 hPa 0,0 l/m 0,0 km/h (0 Bft) N 0 0 min 0,000 mm 7 W/m 14,4 C 16,9 C 0,0 km/h (0 Bft) 100 %
28.08.2016 07:00 16,9 C 16,9 C 16,9 C 85 % 1013,9 hPa 0,0 l/m 0,0 km/h (0 Bft) N 0 0 min 0,000 mm 11 W/m 14,4 C 16,9 C 0,0 km/h (0 Bft) 100 %
28.08.2016 07:10 17,0 C 16,9 C 17,0 C 86 % 1013,9 hPa 0,0 l/m 0,0 km/h (0 Bft) N 0 0 min 0,000 mm 23 W/m 14,6 C 17,0 C 0,0 km/h (0 Bft) 100 %
28.08.2016 07:20 17,0 C 17,0 C 17,0 C 86 % 1014,0 hPa 0,0 l/m 0,0 km/h (0 Bft) N 0 0 min 0,000 mm 30 W/m 14,6 C 17,0 C 0,0 km/h (0 Bft) 100 %
28.08.2016 07:30 17,1 C 17,0 C 17,1 C 86 % 1014,0 hPa 0,0 l/m 0,0 km/h (0 Bft) N 0 0 min 0,000 mm 30 W/m 14,7 C 17,1 C 0,0 km/h (0 Bft) 100 %
28.08.2016 07:40 17,2 C 17,1 C 17,2 C 87 % 1014,0 hPa 0,0 l/m 0,0 km/h (0 Bft) N 0 0 min 0,000 mm 37 W/m 15,0 C 17,2 C 0,0 km/h (0 Bft) 100 %
28.08.2016 07:50 17,2 C 17,2 C 17,3 C 86 % 1014,8 hPa 0,0 l/m 3,2 km/h (1 Bft) S-SO 157 0 min 0,000 mm 49 W/m 14,8 C 17,2 C 11,3 km/h (2 Bft) 99 %
28.08.2016 08:00 17,3 C 17,0 C 17,3 C 86 % 1014,9 hPa 0,0 l/m 6,4 km/h (2 Bft) S 180 0 min 0,025 mm 46 W/m 14,9 C 17,3 C 14,5 km/h (3 Bft) 100 %
28.08.2016 08:10 18,2 C 17,3 C 18,2 C 84 % 1015,1 hPa 0,0 l/m 6,4 km/h (2 Bft) SO 135 0 min 0,000 mm 47 W/m 15,4 C 18,2 C 9,7 km/h (2 Bft) 100 %
28.08.2016 08:20 18,2 C 18,2 C 18,3 C 84 % 1015,1 hPa 0,0 l/m 3,2 km/h (1 Bft) S-SO 157 0 min 0,000 mm 60 W/m 15,4 C 18,2 C 8,0 km/h (2 Bft) 99 %
28.08.2016 08:30 18,1 C 18,1 C 18,2 C 85 % 1014,8 hPa 0,0 l/m 0,0 km/h (0 Bft) S-SO 157 0 min 0,000 mm 47 W/m 15,5 C 18,1 C 4,8 km/h (1 Bft) 99 %
28.08.2016 08:40 18,3 C 18,1 C 18,3 C 84 % 1014,7 hPa 0,0 l/m 0,0 km/h (0 Bft) S-SO 157 0 min 0,000 mm 77 W/m 15,5 C 18,3 C 1,6 km/h (1 Bft) 100 %
28.08.2016 08:50 18,8 C 18,3 C 18,8 C 83 % 1014,6 hPa 0,0 l/m 0,0 km/h (0 Bft) N 0 0 min 0,000 mm 111 W/m 15,8 C 18,8 C 0,0 km/h (0 Bft) 100 %
28.08.2016 09:00 19,3 C 18,8 C 19,3 C 82 % 1014,6 hPa 0,0 l/m 0,0 km/h (0 Bft) N 0 10 min 0,051 mm 174 W/m 16,1 C 19,3 C 0,0 km/h (0 Bft) 100 %
28.08.2016 09:10 19,8 C 19,3 C 19,8 C 81 % 1014,6 hPa 0,0 l/m 0,0 km/h (0 Bft) N 0 0 min 0,000 mm 121 W/m 16,4 C 19,8 C 0,0 km/h (0 Bft) 100 %
28.08.2016 09:20 20,4 C 19,8 C 20,4 C 82 % 1014,5 hPa 0,0 l/m 0,0 km/h (0 Bft) N 0 10 min 0,000 mm 374 W/m 17,2 C 20,4 C 0,0 km/h (0 Bft) 100 %
28.08.2016 09:30 21,1 C 20,4 C 21,1 C 77 % 1014,6 hPa 0,0 l/m 1,6 km/h (1 Bft) SO 135 10 min 0,000 mm 454 W/m 16,9 C 21,1 C 6,4 km/h (2 Bft) 100 %
28.08.2016 09:40 21,7 C 21,1 C 21,7 C 77 % 1014,9 hPa 0,0 l/m 0,0 km/h (0 Bft) SO 135 10 min 0,000 mm 429 W/m 17,5 C 21,7 C 1,6 km/h (1 Bft) 100 %
28.08.2016 09:50 22,6 C 21,7 C 22,6 C 74 % 1014,9 hPa 0,0 l/m 0,0 km/h (0 Bft) N 0 10 min 0,000 mm 492 W/m 17,7 C 22,6 C 0,0 km/h (0 Bft) 100 %
28.08.2016 10:00 23,2 C 22,6 C 23,2 C 72 % 1014,9 hPa 0,0 l/m 0,0 km/h (0 Bft) SW 225 10 min 0,152 mm 513 W/m 17,9 C 23,2 C 4,8 km/h (1 Bft) 99 %
28.08.2016 10:10 23,5 C 23,2 C 23,5 C 70 % 1014,9 hPa 0,0 l/m 0,0 km/h (0 Bft) N 0 10 min 0,000 mm 536 W/m 17,7 C 23,5 C 0,0 km/h (0 Bft) 100 %
28.08.2016 10:20 24,4 C 23,6 C 24,4 C 66 % 1014,9 hPa 0,0 l/m 0,0 km/h (0 Bft) SW 225 10 min 0,000 mm 554 W/m 17,6 C 24,4 C 1,6 km/h (1 Bft) 100 %
28.08.2016 10:30 25,5 C 24,4 C 25,5 C 62 % 1014,8 hPa 0,0 l/m 0,0 km/h (0 Bft) W-SW 247 10 min 0,000 mm 578 W/m 17,7 C 25,5 C 1,6 km/h (1 Bft) 100 %
28.08.2016 10:40 26,8 C 25,5 C 26,8 C 59 % 1014,9 hPa 0,0 l/m 0,0 km/h (0 Bft) S-SW 202 10 min 0,000 mm 596 W/m 18,1 C 26,8 C 6,4 km/h (2 Bft) 100 %
28.08.2016 10:50 27,4 C 26,8 C 27,4 C 55 % 1014,8 hPa 0,0 l/m 1,6 km/h (1 Bft) S 180 10 min 0,000 mm 613 W/m 17,5 C 27,4 C 9,7 km/h (2 Bft) 100 %
28.08.2016 11:00 27,7 C 27,4 C 27,7 C 54 % 1014,8 hPa 0,0 l/m 4,8 km/h (1 Bft) S 180 10 min 0,381 mm 635 W/m 17,5 C 27,7 C 14,5 km/h (3 Bft) 100 %
28.08.2016 11:10 27,7 C 27,6 C 27,7 C 53 % 1014,7 hPa 0,0 l/m 3,2 km/h (1 Bft) S 180 10 min 0,000 mm 645 W/m 17,2 C 27,7 C 14,5 km/h (3 Bft) 99 %
28.08.2016 11:20 28,3 C 27,7 C 28,3 C 52 % 1014,6 hPa 0,0 l/m 3,2 km/h (1 Bft) S-SW 202 10 min 0,000 mm 661 W/m 17,5 C 28,3 C 16,1 km/h (3 Bft) 100 %
28.08.2016 11:30 28,2 C 28,2 C 28,3 C 50 % 1014,5 hPa 0,0 l/m 3,2 km/h (1 Bft) S 180 10 min 0,000 mm 680 W/m 16,8 C 28,2 C 19,3 km/h (3 Bft) 100 %
28.08.2016 11:40 28,8 C 28,2 C 28,8 C 50 % 1014,4 hPa 0,0 l/m 3,2 km/h (1 Bft) S-SW 202 10 min 0,000 mm 691 W/m 17,3 C 28,8 C 9,7 km/h (2 Bft) 99 %
28.08.2016 11:50 29,5 C 28,8 C 29,5 C 48 % 1014,5 hPa 0,0 l/m 4,8 km/h (1 Bft) S-SW 202 10 min 0,000 mm 707 W/m 17,3 C 29,5 C 20,9 km/h (4 Bft) 100 %
28.08.2016 12:00 30,1 C 29,5 C 30,1 C 46 % 1014,3 hPa 0,0 l/m 8,0 km/h (2 Bft) S-SW 202 10 min 0,483 mm 721 W/m 17,2 C 30,0 C 16,1 km/h (3 Bft) 99 %
28.08.2016 12:10 29,6 C 29,5 C 30,1 C 47 % 1014,1 hPa 0,0 l/m 9,0 km/h (2 Bft) O-SO 114 10 min 0,000 mm 729 W/m 17,1 C 29,3 C 14,5 km/h (3 Bft) 96 %
28.08.2016 12:20 29,6 C 29,5 C 29,6 C 49 % 1014,0 hPa 0,0 l/m 8,2 km/h (2 Bft) S-SO 163 10 min 0,000 mm 742 W/m 17,7 C 29,4 C 16,1 km/h (3 Bft) 97 %
28.08.2016 12:30 29,8 C 29,6 C 29,8 C 47 % 1013,9 hPa 0,0 l/m 7,5 km/h (2 Bft) S 180 10 min 0,000 mm 747 W/m 17,2 C 29,7 C 14,5 km/h (3 Bft) 98 %
28.08.2016 12:40 30,2 C 29,8 C 30,2 C 44 % 1013,8 hPa 0,0 l/m 8,5 km/h (2 Bft) S-SW 193 10 min 0,000 mm 758 W/m 16,6 C 30,0 C 17,7 km/h (3 Bft) 97 %
28.08.2016 12:50 30,3 C 30,2 C 30,3 C 45 % 1013,7 hPa 0,0 l/m 8,0 km/h (2 Bft) S-SW 198 10 min 0,000 mm 768 W/m 17,0 C 30,2 C 19,3 km/h (3 Bft) 98 %
28.08.2016 13:00 30,5 C 30,3 C 30,5 C 45 % 1013,6 hPa 0,0 l/m 7,4 km/h (2 Bft) S 177 10 min 0,562 mm 775 W/m 17,2 C 30,4 C 19,3 km/h (3 Bft) 97 %
28.08.2016 13:10 30,9 C 30,5 C 30,9 C 45 % 1013,6 hPa 0,0 l/m 5,3 km/h (1 Bft) S-SO 152 10 min 0,000 mm 777 W/m 17,6 C 30,9 C 17,7 km/h (3 Bft) 97 %
28.08.2016 13:20 31,2 C 30,9 C 31,2 C 45 % 1013,5 hPa 0,0 l/m 8,4 km/h (2 Bft) S-SW 196 10 min 0,000 mm 777 W/m 17,8 C 31,1 C 19,3 km/h (3 Bft) 98 %
28.08.2016 13:30 31,3 C 31,2 C 31,4 C 45 % 1013,3 hPa 0,0 l/m 8,1 km/h (2 Bft) SW 217 10 min 0,000 mm 772 W/m 17,9 C 31,2 C 19,3 km/h (3 Bft) 97 %
28.08.2016 13:40 31,5 C 31,3 C 31,5 C 46 % 1013,2 hPa 0,0 l/m 7,6 km/h (2 Bft) SW 218 10 min 0,000 mm 770 W/m 18,4 C 31,4 C 16,1 km/h (3 Bft) 97 %
28.08.2016 13:50 31,9 C 31,5 C 31,9 C 47 % 1013,3 hPa 0,0 l/m 6,9 km/h (2 Bft) SW 224 10 min 0,000 mm 766 W/m 19,2 C 31,9 C 19,3 km/h (3 Bft) 97 %
28.08.2016 14:00 32,3 C 31,9 C 32,3 C 45 % 1013,2 hPa 0,0 l/m 8,7 km/h (2 Bft) SW 228 10 min 0,609 mm 761 W/m 18,8 C 32,3 C 17,7 km/h (3 Bft) 98 %
28.08.2016 14:10 32,4 C 32,3 C 32,5 C 43 % 1013,1 hPa 0,0 l/m 6,7 km/h (2 Bft) SW 219 10 min 0,000 mm 752 W/m 18,2 C 32,4 C 17,7 km/h (3 Bft) 97 %
28.08.2016 14:20 32,7 C 32,4 C 32,7 C 43 % 1012,9 hPa 0,0 l/m 6,2 km/h (2 Bft) O 92 10 min 0,000 mm 745 W/m 18,5 C 32,7 C 17,7 km/h (3 Bft) 98 %
28.08.2016 14:30 32,7 C 32,6 C 32,7 C 44 % 1012,9 hPa 0,0 l/m 8,0 km/h (2 Bft) SW 234 10 min 0,000 mm 731 W/m 18,8 C 32,7 C 20,9 km/h (4 Bft) 97 %
28.08.2016 14:40 32,6 C 32,6 C 32,7 C 47 % 1012,9 hPa 0,0 l/m 4,6 km/h (1 Bft) SW 221 10 min 0,000 mm 710 W/m 19,8 C 32,6 C 20,9 km/h (4 Bft) 97 %
28.08.2016 14:50 32,8 C 32,6 C 32,8 C 44 % 1012,8 hPa 0,0 l/m 10,7 km/h (2 Bft) S 181 10 min 0,000 mm 703 W/m 18,9 C 32,8 C 22,5 km/h (4 Bft) 97 %
28.08.2016 15:00 32,9 C 32,7 C 32,9 C 42 % 1012,7 hPa 0,0 l/m 9,7 km/h (2 Bft) W-SW 247 10 min 0,585 mm 691 W/m 18,3 C 32,9 C 24,1 km/h (4 Bft) 97 %
28.08.2016 15:10 33,3 C 32,9 C 33,3 C 43 % 1012,7 hPa 0,0 l/m 7,9 km/h (2 Bft) S-SW 202 0 min 0,000 mm 107 W/m 19,0 C 33,3 C 22,5 km/h (4 Bft) 98 %
28.08.2016 15:20 33,4 C 33,3 C 33,4 C 41 % 1012,5 hPa 0,0 l/m 8,4 km/h (2 Bft) W 271 10 min 0,000 mm 269 W/m 18,3 C 33,4 C 19,3 km/h (3 Bft) 97 %
28.08.2016 15:30 33,4 C 33,4 C 33,4 C 42 % 1012,5 hPa 0,0 l/m 6,6 km/h (2 Bft) W-SW 240 0 min 0,000 mm 95 W/m 18,7 C 33,4 C 19,3 km/h (3 Bft) 98 %
28.08.2016 15:40 33,3 C 33,3 C 33,4 C 43 % 1012,4 hPa 0,0 l/m 5,0 km/h (1 Bft) W-SW 247 0 min 0,000 mm 132 W/m 19,0 C 33,3 C 12,9 km/h (3 Bft) 97 %
28.08.2016 15:50 33,1 C 33,1 C 33,4 C 44 % 1012,2 hPa 0,0 l/m 7,1 km/h (2 Bft) S-SW 211 0 min 0,000 mm 148 W/m 19,2 C 33,1 C 19,3 km/h (3 Bft) 97 %
28.08.2016 16:00 33,2 C 33,1 C 33,2 C 42 % 1012,2 hPa 0,0 l/m 12,1 km/h (2 Bft) S-SW 193 0 min 0,228 mm 142 W/m 18,5 C 33,2 C 27,4 km/h (4 Bft) 98 %
28.08.2016 16:10 33,2 C 33,2 C 33,2 C 41 % 1012,0 hPa 0,0 l/m 8,3 km/h (2 Bft) SW 226 0 min 0,000 mm 91 W/m 18,1 C 33,2 C 27,4 km/h (4 Bft) 97 %
28.08.2016 16:20 33,0 C 33,0 C 33,2 C 42 % 1012,0 hPa 0,0 l/m 9,7 km/h (2 Bft) W 265 0 min 0,000 mm 98 W/m 18,3 C 33,0 C 20,9 km/h (4 Bft) 98 %
28.08.2016 16:30 32,9 C 32,9 C 33,1 C 41 % 1012,0 hPa 0,0 l/m 11,2 km/h (2 Bft) S-SW 199 0 min 0,000 mm 90 W/m 17,9 C 32,9 C 25,7 km/h (4 Bft) 97 %
28.08.2016 16:40 32,8 C 32,7 C 32,9 C 43 % 1012,1 hPa 0,0 l/m 9,8 km/h (2 Bft) W-SW 246 0 min 0,000 mm 95 W/m 18,5 C 32,8 C 29,0 km/h (5 Bft) 97 %
28.08.2016 16:50 32,7 C 32,7 C 32,8 C 41 % 1012,2 hPa 0,0 l/m 9,8 km/h (2 Bft) SW 221 0 min 0,000 mm 79 W/m 17,7 C 32,7 C 29,0 km/h (5 Bft) 97 %
28.08.2016 17:00 32,4 C 32,4 C 32,7 C 39 % 1012,2 hPa 0,0 l/m 13,4 km/h (3 Bft) SW 221 0 min 0,178 mm 70 W/m 16,6 C 32,3 C 29,0 km/h (5 Bft) 97 %
28.08.2016 17:10 32,3 C 32,3 C 32,4 C 39 % 1012,1 hPa 0,0 l/m 7,5 km/h (2 Bft) W 281 0 min 0,000 mm 67 W/m 16,5 C 32,3 C 22,5 km/h (4 Bft) 98 %
28.08.2016 17:20 32,4 C 32,3 C 32,4 C 38 % 1012,3 hPa 0,0 l/m 11,5 km/h (2 Bft) NW 313 0 min 0,000 mm 65 W/m 16,2 C 32,3 C 25,7 km/h (4 Bft) 97 %
28.08.2016 17:30 32,4 C 32,4 C 32,4 C 39 % 1012,3 hPa 0,0 l/m 8,6 km/h (2 Bft) W-NW 288 0 min 0,000 mm 62 W/m 16,6 C 32,4 C 29,0 km/h (5 Bft) 98 %
28.08.2016 17:40 32,1 C 32,1 C 32,4 C 40 % 1012,4 hPa 0,0 l/m 8,8 km/h (2 Bft) W 266 0 min 0,000 mm 65 W/m 16,8 C 32,0 C 24,1 km/h (4 Bft) 97 %
28.08.2016 17:50 31,8 C 31,8 C 32,1 C 42 % 1012,4 hPa 0,0 l/m 8,7 km/h (2 Bft) W 273 0 min 0,000 mm 67 W/m 17,3 C 31,7 C 25,7 km/h (4 Bft) 97 %
28.08.2016 18:00 31,6 C 31,6 C 31,8 C 43 % 1012,2 hPa 0,0 l/m 8,9 km/h (2 Bft) W-SW 242 0 min 0,152 mm 35 W/m 17,5 C 31,5 C 24,1 km/h (4 Bft) 98 %
28.08.2016 18:10 31,2 C 31,2 C 31,7 C 44 % 1012,3 hPa 0,0 l/m 7,1 km/h (2 Bft) SW 225 0 min 0,000 mm 37 W/m 17,5 C 31,2 C 22,5 km/h (4 Bft) 98 %
28.08.2016 18:20 30,6 C 30,6 C 31,2 C 45 % 1012,4 hPa 0,0 l/m 4,7 km/h (1 Bft) W-SW 258 0 min 0,000 mm 42 W/m 17,3 C 30,6 C 17,7 km/h (3 Bft) 97 %
28.08.2016 18:30 30,2 C 30,2 C 30,6 C 46 % 1012,3 hPa 0,0 l/m 6,5 km/h (2 Bft) W 271 0 min 0,000 mm 47 W/m 17,3 C 30,2 C 17,7 km/h (3 Bft) 98 %
28.08.2016 18:40 29,9 C 29,9 C 30,2 C 47 % 1012,2 hPa 0,0 l/m 5,2 km/h (1 Bft) W-SW 245 0 min 0,000 mm 47 W/m 17,3 C 29,9 C 14,5 km/h (3 Bft) 98 %
28.08.2016 18:50 29,6 C 29,6 C 29,9 C 48 % 1012,3 hPa 0,0 l/m 3,7 km/h (1 Bft) W 264 0 min 0,000 mm 40 W/m 17,4 C 29,6 C 17,7 km/h (3 Bft) 97 %
28.08.2016 19:00 29,3 C 29,3 C 29,6 C 49 % 1012,4 hPa 0,0 l/m 2,7 km/h (1 Bft) W-SW 256 0 min 0,000 mm 40 W/m 17,5 C 29,3 C 11,3 km/h (2 Bft) 98 %
28.08.2016 19:10 28,9 C 28,9 C 29,3 C 51 % 1012,3 hPa 0,0 l/m 0,0 km/h (0 Bft) W-SW 250 0 min 0,076 mm 37 W/m 17,7 C 28,9 C 1,6 km/h (1 Bft) 97 %
28.08.2016 19:20 28,6 C 28,6 C 28,9 C 51 % 1012,3 hPa 0,0 l/m 1,3 km/h (1 Bft) W 267 0 min 0,001 mm 32 W/m 17,4 C 28,6 C 11,3 km/h (2 Bft) 99 %
28.08.2016 19:30 28,4 C 28,4 C 28,6 C 50 % 1012,3 hPa 0,0 l/m 1,1 km/h (1 Bft) W 267 0 min 0,000 mm 33 W/m 17,0 C 28,4 C 8,0 km/h (2 Bft) 98 %
28.08.2016 19:40 28,2 C 28,2 C 28,4 C 49 % 1012,2 hPa 0,0 l/m 3,6 km/h (1 Bft) W 259 0 min 0,000 mm 32 W/m 16,5 C 28,2 C 11,3 km/h (2 Bft) 99 %
28.08.2016 19:50 28,1 C 28,1 C 28,2 C 49 % 1012,2 hPa 0,0 l/m 1,5 km/h (1 Bft) W 259 0 min 0,000 mm 12 W/m 16,4 C 28,1 C 11,3 km/h (2 Bft) 98 %
28.08.2016 20:00 27,9 C 27,9 C 28,1 C 48 % 1012,4 hPa 0,0 l/m 0,7 km/h (0 Bft) SW 235 0 min 0,000 mm 7 W/m 15,9 C 27,9 C 8,0 km/h (2 Bft) 98 %
28.08.2016 20:10 27,6 C 27,6 C 27,9 C 50 % 1012,5 hPa 0,0 l/m 3,6 km/h (1 Bft) W-NW 294 0 min 0,050 mm 0 W/m 16,2 C 27,6 C 16,1 km/h (3 Bft) 99 %
28.08.2016 20:20 27,6 C 27,6 C 27,6 C 51 % 1012,7 hPa 0,0 l/m 9,8 km/h (2 Bft) NW 304 0 min 0,000 mm 0 W/m 16,5 C 27,1 C 20,9 km/h (4 Bft) 98 %
28.08.2016 20:30 27,4 C 27,4 C 27,6 C 52 % 1012,9 hPa 0,0 l/m 11,0 km/h (2 Bft) W-NW 284 0 min 0,000 mm 0 W/m 16,7 C 26,7 C 29,0 km/h (5 Bft) 99 %
28.08.2016 20:40 27,2 C 27,2 C 27,4 C 54 % 1013,3 hPa 0,0 l/m 7,9 km/h (2 Bft) W 281 0 min 0,000 mm 0 W/m 17,1 C 26,9 C 19,3 km/h (3 Bft) 98 %
28.08.2016 20:50 26,9 C 26,9 C 27,2 C 54 % 1013,3 hPa 0,0 l/m 6,0 km/h (2 Bft) W 281 0 min 0,000 mm 0 W/m 16,8 C 26,9 C 17,7 km/h (3 Bft) 97 %
28.08.2016 21:00 26,8 C 26,8 C 27,0 C 55 % 1013,3 hPa 0,0 l/m 2,5 km/h (1 Bft) W 281 0 min 0,000 mm 0 W/m 17,0 C 26,8 C 12,9 km/h (3 Bft) 98 %
28.08.2016 21:10 26,6 C 26,6 C 26,8 C 56 % 1013,3 hPa 0,0 l/m 1,6 km/h (1 Bft) W-NW 292 0 min 0,000 mm 0 W/m 17,1 C 26,6 C 8,0 km/h (2 Bft) 99 %
28.08.2016 21:20 26,3 C 26,3 C 26,6 C 57 % 1013,7 hPa 0,0 l/m 0,0 km/h (0 Bft) W 270 0 min 0,000 mm 0 W/m 17,1 C 26,3 C 6,4 km/h (2 Bft) 100 %
28.08.2016 21:30 25,9 C 25,9 C 26,3 C 58 % 1013,6 hPa 0,0 l/m 0,0 km/h (0 Bft) W 270 0 min 0,000 mm 0 W/m 17,0 C 25,9 C 4,8 km/h (1 Bft) 99 %
28.08.2016 21:40 25,6 C 25,6 C 25,9 C 60 % 1013,9 hPa 0,0 l/m 0,0 km/h (0 Bft) W 270 0 min 0,000 mm 0 W/m 17,2 C 25,6 C 6,4 km/h (2 Bft) 100 %
28.08.2016 21:50 25,2 C 25,2 C 25,6 C 61 % 1013,9 hPa 0,0 l/m 1,6 km/h (1 Bft) W 270 0 min 0,000 mm 0 W/m 17,1 C 25,2 C 8,0 km/h (2 Bft) 100 %
28.08.2016 22:00 25,1 C 25,1 C 25,2 C 62 % 1013,9 hPa 0,0 l/m 3,2 km/h (1 Bft) W-NW 292 0 min 0,051 mm 0 W/m 17,3 C 25,1 C 9,7 km/h (2 Bft) 99 %
28.08.2016 22:10 25,0 C 25,0 C 25,1 C 62 % 1014,1 hPa 0,0 l/m 1,6 km/h (1 Bft) W 270 0 min 0,000 mm 0 W/m 17,2 C 25,0 C 8,0 km/h (2 Bft) 99 %
28.08.2016 22:20 24,9 C 24,9 C 25,0 C 63 % 1014,0 hPa 0,0 l/m 0,0 km/h (0 Bft) W 270 0 min 0,000 mm 0 W/m 17,4 C 24,9 C 6,4 km/h (2 Bft) 99 %
28.08.2016 22:30 24,8 C 24,8 C 24,9 C 64 % 1014,1 hPa 0,0 l/m 0,0 km/h (0 Bft) W 270 0 min 0,000 mm 0 W/m 17,5 C 24,8 C 1,6 km/h (1 Bft) 91 %
28.08.2016 22:40 24,6 C 24,6 C 24,8 C 65 % 1014,3 hPa 0,0 l/m 0,0 km/h (0 Bft) W 270 0 min 0,000 mm 0 W/m 17,6 C 24,6 C 3,2 km/h (1 Bft) 100 %
28.08.2016 22:50 24,3 C 24,3 C 24,6 C 65 % 1014,4 hPa 0,0 l/m 0,0 km/h (0 Bft) W 270 0 min 0,000 mm 0 W/m 17,3 C 24,3 C 4,8 km/h (1 Bft) 100 %
28.08.2016 23:00 24,1 C 24,1 C 24,3 C 66 % 1014,6 hPa 0,0 l/m 0,0 km/h (0 Bft) N 0 0 min 0,051 mm 0 W/m 17,3 C 24,1 C 0,0 km/h (0 Bft) 100 %
28.08.2016 23:10 23,8 C 23,8 C 24,1 C 67 % 1014,6 hPa 0,0 l/m 0,0 km/h (0 Bft) W 270 0 min 0,000 mm 0 W/m 17,3 C 23,8 C 1,6 km/h (1 Bft) 100 %
28.08.2016 23:20 23,4 C 23,4 C 23,8 C 69 % 1014,7 hPa 0,0 l/m 0,0 km/h (0 Bft) W 270 0 min 0,000 mm 0 W/m 17,4 C 23,4 C 1,6 km/h (1 Bft) 100 %
28.08.2016 23:30 23,0 C 23,0 C 23,4 C 70 % 1014,8 hPa 0,0 l/m 1,6 km/h (1 Bft) W 270 0 min 0,000 mm 0 W/m 17,2 C 23,0 C 6,4 km/h (2 Bft) 100 %
28.08.2016 23:40 22,8 C 22,8 C 23,0 C 71 % 1014,9 hPa 0,0 l/m 1,6 km/h (1 Bft) W-SW 247 0 min 0,000 mm 0 W/m 17,3 C 22,8 C 8,0 km/h (2 Bft) 100 %
28.08.2016 23:50 22,6 C 22,6 C 22,7 C 72 % 1015,0 hPa 0,0 l/m 1,6 km/h (1 Bft) W-SW 247 0 min 0,000 mm 0 W/m 17,3 C 22,6 C 9,7 km/h (2 Bft) 100 %
_ Min-Zeit 06:40 06:40 06:50 17:20 16:10 - 00:00 - - - - - 06:40 06:40 00:00 00:00
Minimum _ 16,9 C 16,9 C 16,9 C 38 % 1012,0 hPa - 0,0 km/h (0 Bft) - - - - - 14,4 C 16,9 C 0,0 km/h (0 Bft) 89 %
_ Max-Zeit 15:20 15:30 15:20 07:40 08:10 00:00 17:00 - - 09:00 14:00 13:10 14:40 15:20 16:40 06:40
Maximum _ 33,4 C 33,4 C 33,4 C 87 % 1015,1 hPa 0,0 l/m 13,4 km/h
SW (3 Bft)
- - 10 min 0,609 mm 777 W/m 19,8 C 33,4 C 29,0 km/h
W (5 Bft)
100 %
Durchschnitt _ 24,5 C 24,4 C 24,7 C 64 % 1013,6 hPa #0,0 l/m 3,1 km/h (1 Bft) W - #6:10 h #3,810 mm 326 W/m 16,6 C 24,5 C 9,4 km/h (2 Bft) 98 %
PRIVATE WETTERSTATION BILLIGHEIM-ALLFELD - www.neckar-odenwald-wetter.de - Holger Sonntag